Time;durP1;ratioP1;P1;durP2;ratioP2;P2;SDS_P1;SDS_P2;PMS_P1;PMS_P2;Temp;Humidity;BMP_temperature;BMP_pressure;BME280_temperature;BME280_humidity;BME280_pressure;Samples;Min_cycle;Max_cycle;Signal;HPM_P1;HPM_P2
2023/10/26 00:03:06;;;;;;;3.90;1.00;;;;;;;20.26;92.15;99818.28;10334792;28;97057;-82
2023/10/26 00:08:10;;;;;;;2.55;1.17;;;;;;;20.18;93.03;99820.78;10335819;28;97078;-81
2023/10/26 00:13:13;;;;;;;4.17;1.20;;;;;;;20.13;94.12;99814.97;10334237;28;96787;-81
2023/10/26 00:18:18;;;;;;;3.10;0.98;;;;;;;20.07;94.91;99749.56;10334188;28;97019;-81
2023/10/26 00:23:21;;;;;;;4.20;1.20;;;;;;;20.06;94.68;99785.28;10333122;28;97170;-82
2023/10/26 00:28:25;;;;;;;2.47;1.00;;;;;;;20.04;95.77;99795.25;10334221;28;97223;-80
2023/10/26 00:33:30;;;;;;;4.25;1.02;;;;;;;20.05;95.03;99786.25;10332924;28;97272;-81
2023/10/26 00:38:34;;;;;;;5.03;1.50;;;;;;;20.07;94.50;99773.59;10333161;28;96665;-82
2023/10/26 00:43:37;;;;;;;2.08;1.08;;;;;;;20.12;94.41;99791.88;10352848;28;96939;-82
2023/10/26 00:48:42;;;;;;;2.78;1.17;;;;;;;20.14;93.71;99774.75;10374036;28;96732;-82
2023/10/26 00:53:46;;;;;;;7.60;1.80;;;;;;;20.13;93.66;99759.69;10373207;28;97384;-82
2023/10/26 00:58:50;;;;;;;6.30;1.45;;;;;;;20.18;93.41;99762.00;10341920;28;97251;-82
2023/10/26 01:03:55;;;;;;;4.07;1.30;;;;;;;20.18;92.94;99748.63;10332819;28;96820;-82
2023/10/26 01:08:59;;;;;;;4.50;1.55;;;;;;;20.22;92.18;99742.88;10332606;28;97233;-82
2023/10/26 01:14:02;;;;;;;2.42;1.30;;;;;;;20.29;91.54;99741.38;10331168;28;96731;-82
2023/10/26 01:19:08;;;;;;;4.38;1.30;;;;;;;20.17;92.42;99729.06;10332810;28;96729;-81
2023/10/26 01:24:13;;;;;;;2.15;1.10;;;;;;;20.11;93.43;99728.78;10331720;28;97309;-80
2023/10/26 01:29:16;;;;;;;3.17;1.75;;;;;;;20.09;93.54;99715.56;10332023;28;96764;-82
2023/10/26 01:34:20;;;;;;;3.92;1.27;;;;;;;20.14;93.46;99723.16;10332029;28;96553;-82
2023/10/26 01:39:25;;;;;;;4.85;1.58;;;;;;;20.18;92.89;99705.88;10331803;28;96917;-82
2023/10/26 01:44:29;;;;;;;2.83;1.42;;;;;;;20.29;91.67;99711.97;10331124;28;97224;-82
2023/10/26 01:49:32;;;;;;;3.13;1.40;;;;;;;20.25;91.84;99694.50;10332682;28;96676;-82
2023/10/26 01:54:38;;;;;;;5.67;1.63;;;;;;;20.38;90.17;99709.53;10330684;28;97120;-82
2023/10/26 01:59:41;;;;;;;6.85;1.77;;;;;;;20.36;90.09;99712.31;10331120;28;96691;-82
2023/10/26 02:04:44;;;;;;;4.05;1.42;;;;;;;20.15;92.01;99706.97;10329742;28;97016;-82
2023/10/26 02:09:49;;;;;;;3.45;1.52;;;;;;;20.15;92.22;99690.13;10331254;28;97453;-82
2023/10/26 02:14:52;;;;;;;4.50;1.45;;;;;;;20.16;91.74;99686.47;10329912;28;96904;-82
2023/10/26 02:19:56;;;;;;;5.10;1.38;;;;;;;20.06;92.72;99688.25;10330611;28;96882;-82
2023/10/26 02:25:01;;;;;;;5.05;1.73;;;;;;;20.07;92.06;99682.78;10330866;28;96617;-81
2023/10/26 02:30:06;;;;;;;6.22;1.30;;;;;;;20.03;92.53;99683.19;10329945;28;96977;-82
2023/10/26 02:35:11;;;;;;;7.47;1.42;;;;;;;20.03;92.12;99681.34;10329383;28;97339;-82
2023/10/26 02:40:15;;;;;;;5.43;1.88;;;;;;;20.04;91.40;99668.84;10331125;28;96755;-81
2023/10/26 02:45:19;;;;;;;4.00;1.80;;;;;;;20.09;90.55;99664.78;10288301;28;96618;-82
2023/10/26 02:50:22;;;;;;;4.72;1.52;;;;;;;20.05;90.43;99659.84;10288400;28;96708;-82
2023/10/26 02:55:27;;;;;;;5.67;2.07;;;;;;;20.06;90.25;99641.03;10328136;28;96916;-82
2023/10/26 03:00:30;;;;;;;3.60;1.48;;;;;;;19.98;91.04;99616.81;10329778;28;97441;-83
2023/10/26 03:05:34;;;;;;;5.43;1.50;;;;;;;19.98;90.95;99631.97;10328956;28;96856;-82
2023/10/26 03:10:38;;;;;;;2.42;1.20;;;;;;;19.89;91.72;99614.09;10328676;28;96678;-82
2023/10/26 03:15:42;;;;;;;3.00;1.35;;;;;;;19.86;92.31;99601.84;10332412;28;96697;-80
2023/10/26 03:20:46;;;;;;;4.00;1.33;;;;;;;19.83;92.55;99612.81;10336227;28;96975;-81
2023/10/26 03:25:51;;;;;;;2.25;1.25;;;;;;;19.82;92.75;99621.78;10336066;28;97206;-82
2023/10/26 03:30:54;;;;;;;2.97;1.42;;;;;;;19.83;92.99;99614.63;10336254;28;96796;-80
2023/10/26 03:35:57;;;;;;;5.90;1.80;;;;;;;19.79;93.17;99590.03;10318893;28;96903;-81
2023/10/26 03:41:02;;;;;;;3.95;1.10;;;;;;;19.74;93.83;99591.41;10294190;28;96669;-81
2023/10/26 03:46:06;;;;;;;4.07;1.83;;;;;;;19.87;92.37;99592.88;10292480;28;96851;-82
2023/10/26 03:51:09;;;;;;;4.63;1.92;;;;;;;19.91;91.27;99593.47;10319552;28;97148;-82
2023/10/26 03:56:14;;;;;;;3.33;1.30;;;;;;;19.93;90.36;99602.16;10334763;28;96703;-82
2023/10/26 04:01:17;;;;;;;3.92;2.03;;;;;;;19.99;89.59;99590.94;10334851;28;97211;-81
2023/10/26 04:06:21;;;;;;;4.35;1.20;;;;;;;20.09;87.51;99587.31;10334880;28;96689;-81
2023/10/26 04:11:26;;;;;;;3.57;1.50;;;;;;;20.05;88.46;99596.59;10334110;28;96983;-81
2023/10/26 04:16:31;;;;;;;2.42;1.42;;;;;;;20.11;87.59;99598.72;10333760;28;96936;-82
2023/10/26 04:21:34;;;;;;;3.70;0.93;;;;;;;20.20;85.43;99555.13;10334795;28;97210;-81
2023/10/26 04:26:39;;;;;;;4.82;1.63;;;;;;;20.24;84.66;99583.28;10369409;28;97312;-81
2023/10/26 04:31:42;;;;;;;3.97;1.00;;;;;;;20.24;84.39;99564.56;10375198;28;96994;-81
2023/10/26 04:36:46;;;;;;;5.10;1.70;;;;;;;20.25;84.67;99547.53;10373886;28;96991;-81
2023/10/26 04:41:51;;;;;;;3.80;0.87;;;;;;;20.27;83.74;99540.25;10373811;28;97133;-81
2023/10/26 04:46:54;;;;;;;5.10;1.10;;;;;;;20.24;83.60;99545.88;10367577;28;97122;-82
2023/10/26 04:51:57;;;;;;;2.85;1.00;;;;;;;20.02;85.64;99551.47;10333133;28;96694;-82
2023/10/26 04:57:02;;;;;;;3.80;1.17;;;;;;;19.93;86.34;99556.75;10333451;28;96683;-83
2023/10/26 05:02:06;;;;;;;2.55;0.90;;;;;;;19.91;86.72;99537.38;10332685;28;97026;-82
2023/10/26 05:07:09;;;;;;;4.50;1.60;;;;;;;20.01;85.71;99530.22;10332589;28;96985;-82
2023/10/26 05:12:14;;;;;;;2.83;1.10;;;;;;;19.96;86.25;99535.97;10333065;28;96728;-81
2023/10/26 05:17:17;;;;;;;2.80;1.00;;;;;;;19.92;86.86;99510.53;10331907;28;96661;-82
2023/10/26 05:22:21;;;;;;;2.90;0.80;;;;;;;19.92;86.04;99488.31;10332207;28;96814;-82
2023/10/26 05:27:26;;;;;;;4.53;1.05;;;;;;;19.94;85.99;99481.03;10330830;28;96731;-82
2023/10/26 05:32:29;;;;;;;3.35;0.95;;;;;;;19.91;86.07;99452.75;10350444;28;96636;-83
2023/10/26 05:37:34;;;;;;;3.77;0.70;;;;;;;19.83;87.01;99462.44;10372880;28;97225;-83
2023/10/26 05:42:38;;;;;;;3.63;1.00;;;;;;;19.79;87.65;99435.16;10373087;28;96614;-82
2023/10/26 05:47:42;;;;;;;2.25;0.65;;;;;;;19.87;86.72;99421.13;10345456;28;97230;-81
2023/10/26 05:52:45;;;;;;;3.15;0.90;;;;;;;19.97;85.48;99395.28;10331029;28;97149;-81
2023/10/26 05:57:50;;;;;;;3.45;1.20;;;;;;;20.09;84.66;99354.94;10331288;28;97269;-82
2023/10/26 06:02:53;;;;;;;2.58;1.00;;;;;;;20.01;85.48;99400.19;10331917;28;96773;-82
2023/10/26 06:07:57;;;;;;;2.60;1.02;;;;;;;19.93;86.46;99394.72;10331439;28;96820;-82
2023/10/26 06:13:02;;;;;;;5.10;1.10;;;;;;;20.09;84.75;99378.13;10330515;28;96641;-82
2023/10/26 06:18:05;;;;;;;1.58;0.50;;;;;;;20.14;83.92;99354.50;10329268;28;96721;-81
2023/10/26 06:23:11;;;;;;;0.68;0.40;;;;;;;20.11;84.39;99347.63;10346286;28;96738;-81
2023/10/26 06:28:17;;;;;;;2.45;0.70;;;;;;;20.15;84.21;99348.19;10371547;28;96749;-81
2023/10/26 06:33:20;;;;;;;1.70;0.75;;;;;;;20.06;85.15;99336.53;10371181;28;96692;-82
2023/10/26 06:38:23;;;;;;;3.50;0.70;;;;;;;19.86;87.30;99328.66;10337870;28;97040;-82
2023/10/26 06:43:28;;;;;;;2.38;0.80;;;;;;;19.69;89.07;99327.53;10362334;28;97278;-82
2023/10/26 06:48:31;;;;;;;0.90;0.38;;;;;;;19.68;89.20;99306.31;10328130;28;97351;-82
2023/10/26 06:53:35;;;;;;;1.10;0.60;;;;;;;19.62;90.18;99306.88;10329960;28;96854;-81
2023/10/26 06:58:42;;;;;;;1.70;0.60;;;;;;;19.64;89.62;99300.44;10330348;28;96844;-80
2023/10/26 07:03:45;;;;;;;2.05;0.85;;;;;;;19.51;91.31;99307.03;10329172;28;96661;-80
2023/10/26 07:08:49;;;;;;;1.70;0.60;;;;;;;19.42;92.66;99326.53;10328418;28;96730;-81
2023/10/26 07:14:01;;;;;;;1.00;0.63;;;;;;;19.36;94.02;99319.88;10329433;28;96929;-81
2023/10/26 07:19:04;;;;;;;1.92;0.40;;;;;;;19.44;93.90;99319.25;10329147;28;96683;-83
2023/10/26 07:24:08;;;;;;;1.65;0.55;;;;;;;19.48;93.01;99318.81;10329034;28;97382;-82
2023/10/26 07:29:13;;;;;;;0.93;0.32;;;;;;;19.51;92.29;99331.06;10328933;28;97531;-81
2023/10/26 07:34:16;;;;;;;2.10;0.30;;;;;;;19.42;92.81;99330.06;10287501;28;96682;-82
2023/10/26 07:39:19;;;;;;;0.82;0.47;;;;;;;19.44;91.47;99314.72;10287858;28;96791;-82
2023/10/26 07:44:45;;;;;;;1.80;0.43;;;;;;;19.43;90.15;99296.19;10288336;28;97356;-82
2023/10/26 07:49:49;;;;;;;1.67;0.45;;;;;;;19.58;88.10;99308.97;10318082;28;97947;-82
2023/10/26 07:54:52;;;;;;;3.78;0.70;;;;;;;19.65;87.32;99312.78;10328131;28;97565;-81
2023/10/26 07:59:57;;;;;;;1.30;0.47;;;;;;;19.72;86.91;99292.53;10327392;28;96646;-81
2023/10/26 08:05:00;;;;;;;2.67;1.00;;;;;;;19.77;85.89;99281.47;10335704;28;96688;-81
2023/10/26 08:10:04;;;;;;;1.48;0.63;;;;;;;19.76;86.40;99287.75;10334235;28;97595;-81
2023/10/26 08:15:10;;;;;;;2.50;0.70;;;;;;;19.82;85.24;99285.38;10333615;28;97839;-82
2023/10/26 08:20:33;;;;;;;1.88;0.80;;;;;;;19.29;90.55;99335.63;10334835;28;97017;-80
2023/10/26 08:25:36;;;;;;;1.40;0.45;;;;;;;18.97;94.04;99342.94;10334051;28;96790;-82
2023/10/26 08:30:41;;;;;;;1.08;0.30;;;;;;;18.86;90.68;99384.88;10333968;28;96735;-82
2023/10/26 08:35:49;;;;;;;1.95;0.30;;;;;;;18.76;88.76;99422.16;10334659;28;96714;-82
2023/10/26 08:40:54;;;;;;;0.70;0.28;;;;;;;18.65;90.05;99456.88;10334002;28;97313;-82
2023/10/26 08:46:00;;;;;;;;;;;;;;;18.45;89.54;99478.16;10333624;28;96635;-82
2023/10/26 08:51:04;;;;;;;0.10;0.10;;;;;;;18.30;89.73;99485.59;10332650;28;96889;-81
2023/10/26 08:56:11;;;;;;;1.23;0.30;;;;;;;18.32;90.55;99501.44;10333921;28;97599;-82
2023/10/26 09:01:16;;;;;;;1.73;0.32;;;;;;;18.22;89.92;99484.53;10333019;28;96679;-82
2023/10/26 09:06:19;;;;;;;1.98;0.40;;;;;;;18.33;90.21;99473.84;10332883;28;97121;-82
2023/10/26 09:11:24;;;;;;;0.77;0.30;;;;;;;18.26;89.94;99478.00;10333332;28;96814;-82
2023/10/26 09:16:37;;;;;;;0.30;0.20;;;;;;;18.22;89.80;99456.09;10355347;28;96772;-81
2023/10/26 09:21:52;;;;;;;0.47;0.20;;;;;;;18.14;90.22;99462.06;10325190;28;96671;-81
2023/10/26 09:26:56;;;;;;;0.10;0.10;;;;;;;18.20;90.31;99466.03;10291508;28;96786;-81
2023/10/26 09:32:01;;;;;;;;;;;;;;;18.12;90.25;99464.00;10354500;28;96796;-81
2023/10/26 09:37:05;;;;;;;0.57;0.20;;;;;;;18.12;90.38;99456.00;10352554;28;97391;-82
2023/10/26 09:42:10;;;;;;;0.43;0.20;;;;;;;18.15;89.82;99439.78;10330787;28;96681;-82
2023/10/26 09:47:16;;;;;;;;;;;;;;;18.10;89.94;99459.78;10348742;28;97193;-82
2023/10/26 09:52:20;;;;;;;0.13;0.08;;;;;;;18.06;90.19;99484.97;10372515;28;96815;-81
2023/10/26 09:57:33;;;;;;;0.05;0.05;;;;;;;18.02;90.74;99503.00;10372901;28;97043;-82
2023/10/26 10:02:37;;;;;;;0.38;0.20;;;;;;;17.99;90.44;99516.56;10371276;28;96869;-82
2023/10/26 10:07:45;;;;;;;1.67;0.20;;;;;;;17.99;90.42;99511.25;10358075;28;96558;-82
2023/10/26 10:12:53;;;;;;;0.30;0.20;;;;;;;17.92;89.78;99499.41;10330377;28;97291;-81
2023/10/26 10:18:07;;;;;;;0.57;0.20;;;;;;;17.95;89.62;99517.78;10330816;28;96968;-82
2023/10/26 10:23:30;;;;;;;1.10;0.30;;;;;;;17.99;89.46;99516.56;10329646;28;96682;-82
2023/10/26 10:28:41;;;;;;;0.28;0.25;;;;;;;17.96;89.88;99529.28;10330477;28;97233;-82
2023/10/26 10:33:47;;;;;;;0.70;0.30;;;;;;;17.99;89.45;99521.03;10329004;28;97253;-82
2023/10/26 10:39:23;;;;;;;0.55;0.15;;;;;;;17.99;89.76;99543.19;10330665;28;97059;-81
2023/10/26 10:44:27;;;;;;;1.27;0.20;;;;;;;17.76;89.98;99530.88;10328739;28;96913;-81
2023/10/26 10:49:32;;;;;;;0.40;0.30;;;;;;;17.78;89.39;99517.44;10330004;28;96904;-81
2023/10/26 10:54:35;;;;;;;0.85;0.40;;;;;;;17.94;89.30;99513.44;10329840;28;96951;-82
2023/10/26 10:59:42;;;;;;;0.55;0.30;;;;;;;17.92;89.36;99530.50;10329627;28;96862;-82
2023/10/26 11:04:54;;;;;;;0.80;0.40;;;;;;;17.88;88.76;99534.41;10328980;28;96795;-81
2023/10/26 11:10:11;;;;;;;0.40;0.25;;;;;;;17.80;88.68;99543.00;10330297;28;97055;-81
2023/10/26 11:15:15;;;;;;;0.22;0.20;;;;;;;17.84;88.91;99527.63;10288062;28;96988;-82
2023/10/26 11:20:38;;;;;;;1.73;0.40;;;;;;;17.91;88.64;99495.06;10288049;28;96776;-82
2023/10/26 11:25:42;;;;;;;0.28;0.10;;;;;;;17.77;88.35;99506.00;10326750;28;96694;-81
2023/10/26 11:30:49;;;;;;;0.82;0.32;;;;;;;17.80;88.52;99495.09;10329391;28;96778;-81
2023/10/26 11:35:55;;;;;;;0.45;0.20;;;;;;;17.76;88.89;99530.06;10330700;28;97628;-81
2023/10/26 11:40:58;;;;;;;0.73;0.45;;;;;;;17.80;88.58;99511.06;10335767;28;96633;-81
2023/10/26 11:46:02;;;;;;;1.85;0.28;;;;;;;17.77;89.12;99521.09;10335861;28;97135;-81
2023/10/26 11:51:08;;;;;;;1.55;0.43;;;;;;;17.76;89.46;99525.56;10335185;28;96677;-81
2023/10/26 11:56:11;;;;;;;1.30;0.40;;;;;;;17.79;89.67;99482.75;10335133;28;96600;-81
2023/10/26 12:01:15;;;;;;;1.55;0.40;;;;;;;17.82;89.39;99471.00;10336386;28;96683;-81
2023/10/26 12:06:20;;;;;;;0.85;0.38;;;;;;;17.84;90.04;99395.41;10335164;28;97347;-81
2023/10/26 12:11:23;;;;;;;;;;;;;;;18.03;89.68;99406.22;10335162;28;96881;-80
2023/10/26 12:16:26;;;;;;;0.20;0.20;;;;;;;18.05;88.42;99425.56;10358169;22;97756;-80
2023/10/26 12:21:31;;;;;;;0.55;0.20;;;;;;;18.03;88.61;99402.69;10347487;28;96693;-81
2023/10/26 12:26:33;;;;;;;;;;;;;;;17.97;88.72;99419.16;10333965;28;97431;-82
2023/10/26 12:31:37;;;;;;;0.95;0.22;;;;;;;17.91;89.29;99459.63;10332327;28;97387;-81
2023/10/26 12:36:42;;;;;;;0.75;0.40;;;;;;;17.81;89.72;99430.22;10333326;28;96812;-81
2023/10/26 12:41:46;;;;;;;0.20;0.17;;;;;;;17.84;89.77;99434.47;10333613;28;96752;-81
2023/10/26 12:46:50;;;;;;;0.65;0.20;;;;;;;17.73;89.66;99464.63;10331048;28;96837;-82
2023/10/26 12:51:56;;;;;;;1.25;0.25;;;;;;;17.78;89.54;99454.44;10334347;28;97391;-81
2023/10/26 12:56:59;;;;;;;0.17;0.15;;;;;;;17.75;89.38;99459.16;10333057;28;96715;-81
2023/10/26 13:02:02;;;;;;;0.35;0.10;;;;;;;17.86;89.31;99462.66;10333410;28;96853;-81
2023/10/26 13:07:07;;;;;;;0.10;0.10;;;;;;;17.80;89.27;99492.44;10329964;28;96788;-80
2023/10/26 13:12:10;;;;;;;;;;;;;;;18.06;89.39;99507.13;10330282;28;96783;-80
2023/10/26 13:17:14;;;;;;;0.32;0.25;;;;;;;18.17;88.82;99520.41;10332456;28;97371;-80
2023/10/26 13:22:19;;;;;;;0.40;0.32;;;;;;;18.22;88.27;99529.81;10332940;28;96785;-80
2023/10/26 13:27:22;;;;;;;;;;;;;;;18.35;88.24;99523.34;10328762;28;97048;-80
2023/10/26 13:32:26;;;;;;;1.67;0.47;;;;;;;18.45;87.55;99529.63;10330651;28;96685;-80
2023/10/26 13:37:31;;;;;;;0.80;0.55;;;;;;;19.04;87.23;99536.09;10332018;28;97389;-80
2023/10/26 13:42:34;;;;;;;;;;;;;;;19.75;84.52;99545.06;10331139;28;97221;-80
2023/10/26 13:47:37;;;;;;;0.85;0.35;;;;;;;20.02;83.09;99550.59;10331125;28;96890;-79
2023/10/26 13:52:42;;;;;;;0.53;0.30;;;;;;;19.71;82.98;99575.66;10331607;28;96653;-79
2023/10/26 13:57:46;;;;;;;1.40;0.28;;;;;;;19.55;81.00;99584.16;10329821;28;96610;-79
2023/10/26 14:02:49;;;;;;;0.80;0.47;;;;;;;19.22;77.56;99595.03;10331186;28;96624;-79
2023/10/26 14:07:54;;;;;;;0.32;0.30;;;;;;;19.19;75.19;99593.50;10330729;28;97211;-79
2023/10/26 14:12:57;;;;;;;2.45;0.77;;;;;;;20.52;74.33;99592.34;10330954;28;96965;-79
2023/10/26 14:18:00;;;;;;;2.10;0.52;;;;;;;21.17;74.21;99586.31;10330041;28;97072;-79
2023/10/26 14:23:06;;;;;;;0.97;0.40;;;;;;;20.63;73.98;99607.41;10330532;28;97128;-79
2023/10/26 14:28:09;;;;;;;2.08;0.43;;;;;;;20.25;73.98;99609.00;10330722;28;97391;-79
2023/10/26 14:33:12;;;;;;;1.23;0.30;;;;;;;20.78;71.50;99616.69;10330778;28;97254;-79
2023/10/26 14:38:17;;;;;;;2.10;0.20;;;;;;;21.30;70.65;99621.63;10330179;28;96901;-80
2023/10/26 14:43:21;;;;;;;1.42;0.20;;;;;;;21.17;69.89;99632.63;10329134;28;97051;-80
2023/10/26 14:48:25;;;;;;;1.13;0.27;;;;;;;21.29;68.74;99634.16;10328664;28;97033;-80
2023/10/26 14:53:30;;;;;;;1.00;0.30;;;;;;;20.86;68.62;99643.63;10329766;28;97453;-80
2023/10/26 14:58:34;;;;;;;2.00;0.43;;;;;;;21.29;67.72;99633.34;10329469;28;96750;-80
2023/10/26 15:03:37;;;;;;;1.92;0.55;;;;;;;22.69;64.99;99635.72;10329465;28;96855;-80
2023/10/26 15:08:42;;;;;;;3.10;0.88;;;;;;;23.31;63.50;99642.84;10329266;28;96955;-80
2023/10/26 15:13:45;;;;;;;1.63;0.68;;;;;;;22.46;65.28;99639.81;10335491;28;96605;-80
2023/10/26 15:18:49;;;;;;;3.13;1.00;;;;;;;21.26;67.25;99660.38;10336129;28;97514;-80
2023/10/26 15:23:55;;;;;;;3.35;0.77;;;;;;;20.52;69.20;99672.53;10337086;28;97319;-79
2023/10/26 15:28:58;;;;;;;1.63;0.75;;;;;;;20.27;69.49;99673.03;10335924;28;96754;-79
2023/10/26 15:34:01;;;;;;;0.82;0.50;;;;;;;20.55;65.59;99668.75;10353403;28;97994;-79
2023/10/26 15:39:06;;;;;;;1.37;0.60;;;;;;;21.22;65.22;99675.03;10334128;28;96924;-79
2023/10/26 15:44:10;;;;;;;3.00;0.90;;;;;;;20.28;67.15;99677.38;10334930;28;97672;-79
2023/10/26 15:49:13;;;;;;;3.40;0.70;;;;;;;19.66;68.33;99674.00;10335651;28;97498;-78
2023/10/26 15:54:38;;;;;;;1.73;1.48;;;;;;;19.29;70.61;99703.78;10335476;28;96766;-79
2023/10/26 15:59:42;;;;;;;2.88;1.10;;;;;;;19.07;71.03;99690.53;10334921;28;96699;-79
2023/10/26 16:04:45;;;;;;;4.10;1.02;;;;;;;18.91;72.15;99713.25;10334750;28;97920;-80
2023/10/26 16:09:51;;;;;;;2.40;0.85;;;;;;;18.67;72.20;99732.09;10334671;28;97007;-79
2023/10/26 16:14:54;;;;;;;2.50;0.88;;;;;;;18.92;71.60;99733.63;10334904;28;96679;-79
2023/10/26 16:19:59;;;;;;;2.83;0.90;;;;;;;19.46;70.39;99745.06;10333682;28;96751;-79
2023/10/26 16:25:04;;;;;;;3.28;0.70;;;;;;;19.72;70.45;99750.91;10334224;28;96676;-79
2023/10/26 16:30:08;;;;;;;1.48;0.50;;;;;;;19.92;69.81;99742.88;10336457;28;96884;-79
2023/10/26 16:35:11;;;;;;;;;;;;;;;19.73;69.39;99723.22;10358169;28;97222;-79
2023/10/26 16:40:16;;;;;;;2.05;0.65;;;;;;;19.33;70.33;99747.06;10333768;28;97060;-79
2023/10/26 16:45:20;;;;;;;4.40;0.98;;;;;;;19.45;70.68;99762.06;10333040;28;96760;-79
2023/10/26 16:50:23;;;;;;;4.20;1.30;;;;;;;19.16;71.38;99766.28;10333206;28;96646;-79
2023/10/26 16:55:28;;;;;;;4.15;1.05;;;;;;;18.98;71.82;99759.78;10332933;28;96946;-79
2023/10/26 17:00:31;;;;;;;5.13;1.42;;;;;;;18.86;72.07;99763.44;10333171;28;96888;-79
2023/10/26 17:05:35;;;;;;;6.22;1.73;;;;;;;18.69;71.94;99755.97;10333409;28;97123;-79
2023/10/26 17:10:40;;;;;;;3.90;1.17;;;;;;;18.61;72.34;99745.09;10332196;28;97524;-79
2023/10/26 17:15:44;;;;;;;3.42;1.92;;;;;;;18.55;72.94;99757.09;10332001;28;96684;-79
2023/10/26 17:20:48;;;;;;;7.30;1.33;;;;;;;18.34;72.91;99765.88;10331386;28;97262;-79
2023/10/26 17:25:53;;;;;;;4.33;1.13;;;;;;;18.29;73.31;99779.56;10331936;28;96824;-79
2023/10/26 17:31:05;;;;;;;3.25;1.08;;;;;;;18.11;73.25;99786.31;10360021;28;96687;-78
2023/10/26 17:36:08;;;;;;;2.50;1.00;;;;;;;18.09;73.54;99793.59;10354462;28;97149;-79
2023/10/26 17:41:15;;;;;;;7.00;1.90;;;;;;;18.01;73.16;99794.19;10331239;28;97400;-79
2023/10/26 17:46:19;;;;;;;6.20;1.38;;;;;;;17.99;72.84;99797.94;10290093;28;96656;-79
2023/10/26 17:51:23;;;;;;;5.80;1.48;;;;;;;17.91;72.98;99806.53;10289749;28;96625;-79
2023/10/26 17:56:28;;;;;;;4.43;1.33;;;;;;;17.81;73.47;99804.69;10291008;28;97021;-79
2023/10/26 18:01:31;;;;;;;;;;;;;;;17.71;72.81;99809.84;10318281;28;97253;-78
2023/10/26 18:06:36;;;;;;;6.27;1.63;;;;;;;17.72;73.45;99816.88;10331128;28;97280;-79
2023/10/26 18:11:40;;;;;;;5.90;1.52;;;;;;;17.72;73.38;99816.03;10329302;28;96645;-79
2023/10/26 18:16:43;;;;;;;;;;;;;;;17.68;73.07;99846.47;10330530;28;96861;-78
2023/10/26 18:21:47;;;;;;;5.95;1.75;;;;;;;17.36;75.65;99866.63;10330629;28;96943;-80
2023/10/26 18:26:52;;;;;;;5.03;1.63;;;;;;;17.11;77.96;99874.66;10340368;28;97372;-80
2023/10/26 18:31:57;;;;;;;5.45;1.52;;;;;;;17.04;77.99;99875.13;10371619;28;96613;-81
2023/10/26 18:37:00;;;;;;;;;;;;;;;17.07;78.98;99876.69;10330645;28;96640;-79
2023/10/26 18:42:05;;;;;;;5.05;1.13;;;;;;;16.98;78.75;99875.56;10329978;28;96955;-80
2023/10/26 18:47:09;;;;;;;6.03;1.65;;;;;;;16.89;79.02;99872.72;10328871;28;97020;-80
2023/10/26 18:52:12;;;;;;;6.73;1.50;;;;;;;16.87;78.71;99871.97;10329673;28;96926;-79
2023/10/26 18:57:17;;;;;;;5.00;1.60;;;;;;;16.84;79.42;99882.84;10329313;28;98450;-79
2023/10/26 19:02:21;;;;;;;10.80;1.55;;;;;;;16.96;78.52;99897.91;10328180;28;97399;-79
2023/10/26 19:07:24;;;;;;;5.70;1.52;;;;;;;16.99;78.77;99900.34;10329502;28;96819;-80
2023/10/26 19:12:29;;;;;;;6.93;1.90;;;;;;;16.95;78.95;99902.34;10329045;28;97104;-80
2023/10/26 19:17:33;;;;;;;5.63;2.17;;;;;;;16.89;79.66;99891.31;10328306;28;97242;-81
2023/10/26 19:22:36;;;;;;;5.97;1.35;;;;;;;16.91;79.60;99894.72;10328774;28;97267;-80
2023/10/26 19:27:42;;;;;;;4.90;1.38;;;;;;;16.84;80.08;99893.47;10328464;28;96996;-81
2023/10/26 19:32:46;;;;;;;5.25;1.25;;;;;;;16.83;80.33;99897.06;10328698;28;97008;-80
2023/10/26 19:37:49;;;;;;;7.65;1.60;;;;;;;16.79;80.77;99922.16;10328746;28;97310;-79
2023/10/26 19:42:54;;;;;;;5.43;1.52;;;;;;;16.78;81.21;99928.41;10328221;28;96736;-80
2023/10/26 19:47:58;;;;;;;8.45;2.00;;;;;;;16.70;81.48;99921.00;10327878;28;96542;-81
2023/10/26 19:53:02;;;;;;;7.20;1.70;;;;;;;16.71;81.56;99905.88;10327104;28;96593;-80
2023/10/26 19:58:07;;;;;;;7.72;1.60;;;;;;;16.81;81.43;99913.13;10331740;28;97036;-79
2023/10/26 20:03:10;;;;;;;5.20;1.75;;;;;;;16.87;81.36;99910.03;10335155;28;97076;-79
2023/10/26 20:08:14;;;;;;;5.82;1.60;;;;;;;16.89;81.02;99910.78;10334800;28;97268;-79
2023/10/26 20:13:18;;;;;;;5.07;1.58;;;;;;;16.89;80.99;99916.09;10334405;28;96584;-79
2023/10/26 20:18:23;;;;;;;7.22;1.52;;;;;;;16.80;81.21;99905.25;10334036;28;96871;-79
2023/10/26 20:23:26;;;;;;;6.80;1.63;;;;;;;16.85;81.46;99911.09;10355706;28;96616;-79
2023/10/26 20:28:31;;;;;;;5.70;1.48;;;;;;;16.92;81.55;99915.88;10376174;28;96596;-79
2023/10/26 20:33:34;;;;;;;3.17;1.35;;;;;;;16.86;81.73;99924.25;10354433;28;96686;-79
2023/10/26 20:38:38;;;;;;;4.75;1.92;;;;;;;16.81;81.64;99912.25;10333727;28;96571;-79
2023/10/26 20:43:43;;;;;;;7.00;1.80;;;;;;;16.82;81.68;99906.00;10332359;28;97324;-79
2023/10/26 20:48:47;;;;;;;4.40;1.60;;;;;;;16.68;82.04;99912.28;10333481;28;97141;-79
2023/10/26 20:53:51;;;;;;;4.68;1.80;;;;;;;16.71;81.74;99924.50;10333049;28;97194;-79
2023/10/26 20:58:55;;;;;;;8.65;1.73;;;;;;;16.55;82.72;99923.88;10332917;28;97384;-79
2023/10/26 21:03:59;;;;;;;5.18;1.50;;;;;;;16.47;83.07;99920.88;10333209;28;97585;-79
2023/10/26 21:09:04;;;;;;;4.38;1.70;;;;;;;16.44;82.72;99932.59;10332257;28;96802;-79
2023/10/26 21:14:10;;;;;;;6.07;1.73;;;;;;;16.36;82.84;99926.88;10332057;28;97139;-79
2023/10/26 21:19:14;;;;;;;4.38;1.63;;;;;;;16.36;83.26;99926.06;10338013;28;97159;-79
2023/10/26 21:24:17;;;;;;;3.58;1.48;;;;;;;16.42;83.07;99930.97;10355487;28;96692;-79
2023/10/26 21:29:22;;;;;;;5.68;1.55;;;;;;;16.32;83.61;99925.41;10332199;28;96567;-79
2023/10/26 21:34:25;;;;;;;4.28;1.80;;;;;;;16.12;84.38;99922.38;10330199;28;96776;-79
2023/10/26 21:39:30;;;;;;;5.90;1.55;;;;;;;16.03;83.88;99923.03;10331508;28;97015;-79
2023/10/26 21:44:34;;;;;;;7.65;1.70;;;;;;;16.04;83.42;99919.41;10331256;28;97539;-78
2023/10/26 21:49:37;;;;;;;;;;;;;;;16.09;83.68;99925.25;10332049;28;96658;-79
2023/10/26 21:54:41;;;;;;;5.10;1.17;;;;;;;16.11;83.35;99918.03;10331011;28;97884;-78
2023/10/26 21:59:46;;;;;;;3.87;1.27;;;;;;;15.97;83.06;99918.97;10331124;28;97000;-79
2023/10/26 22:04:49;;;;;;;;;;;;;;;16.01;83.24;99925.78;10331675;28;96830;-79
2023/10/26 22:09:53;;;;;;;7.18;1.60;;;;;;;15.96;82.87;99937.66;10331982;28;97141;-79
2023/10/26 22:14:59;;;;;;;2.15;1.20;;;;;;;15.90;83.73;99941.56;10330425;28;97002;-79
2023/10/26 22:20:03;;;;;;;6.05;1.92;;;;;;;15.93;84.18;99935.22;10359326;28;96921;-79
2023/10/26 22:25:07;;;;;;;5.20;1.38;;;;;;;16.04;84.35;99935.34;10370393;28;97052;-79
2023/10/26 22:30:13;;;;;;;2.83;1.50;;;;;;;16.09;83.53;99949.16;10371065;28;97196;-79
2023/10/26 22:35:17;;;;;;;7.55;1.40;;;;;;;16.18;83.29;99953.84;10300036;28;97210;-80
2023/10/26 22:40:20;;;;;;;4.97;1.27;;;;;;;16.18;83.77;99937.91;10329835;28;96757;-80
2023/10/26 22:45:25;;;;;;;5.57;1.20;;;;;;;16.19;83.68;99945.78;10329537;28;96757;-80
2023/10/26 22:50:29;;;;;;;3.33;1.02;;;;;;;16.05;83.74;99940.53;10329866;28;97369;-79
2023/10/26 22:55:34;;;;;;;4.68;1.10;;;;;;;16.11;84.18;99929.53;10329523;28;97605;-80
2023/10/26 23:00:39;;;;;;;3.60;1.20;;;;;;;16.13;83.78;99929.41;10330319;28;96702;-80
2023/10/26 23:05:43;;;;;;;4.40;1.27;;;;;;;16.08;83.66;99916.47;10329092;28;96908;-80
2023/10/26 23:10:46;;;;;;;5.85;1.20;;;;;;;16.10;83.74;99929.63;10329166;28;96633;-79
2023/10/26 23:15:51;;;;;;;3.95;1.27;;;;;;;16.08;84.12;99920.91;10341030;28;97036;-80
2023/10/26 23:20:54;;;;;;;3.75;1.30;;;;;;;15.96;84.56;99914.59;10370443;28;97312;-80
2023/10/26 23:25:57;;;;;;;7.32;1.27;;;;;;;15.97;84.89;99908.38;10329897;28;96753;-80
2023/10/26 23:31:02;;;;;;;3.05;1.20;;;;;;;15.90;85.08;99915.91;10329838;28;96562;-79
2023/10/26 23:36:07;;;;;;;5.75;1.25;;;;;;;15.88;85.73;99903.66;10336170;28;96968;-80
2023/10/26 23:41:10;;;;;;;1.77;1.10;;;;;;;15.83;85.60;99906.63;10335878;28;96906;-80
2023/10/26 23:46:15;;;;;;;4.75;1.20;;;;;;;15.80;86.60;99903.34;10335647;28;97230;-80